Time;durP1;ratioP1;P1;durP2;ratioP2;P2;SDS_P1;SDS_P2;PMS_P1;PMS_P2;Temp;Humidity;BMP_temperature;BMP_pressure;BME280_temperature;BME280_humidity;BME280_pressure;Samples;Min_cycle;Max_cycle;Signal;HPM_P1;HPM_P2
2023/07/17 00:02:16;;;;;;;4.15;1.77;;;21.40;97.10;;;;;;5048156;28;20409;-82
2023/07/17 00:04:42;;;;;;;6.25;2.10;;;21.40;97.10;;;;;;5041386;28;20044;-83
2023/07/17 00:07:08;;;;;;;6.22;1.98;;;21.40;97.10;;;;;;5038898;28;20025;-84
2023/07/17 00:09:33;;;;;;;5.45;2.03;;;21.40;97.00;;;;;;5040106;28;20047;-83
2023/07/17 00:11:59;;;;;;;2.33;1.85;;;21.40;96.90;;;;;;5037293;28;20017;-82
2023/07/17 00:14:24;;;;;;;3.83;2.17;;;21.40;96.90;;;;;;5041774;28;20466;-83
2023/07/17 00:16:50;;;;;;;5.00;2.30;;;21.40;96.90;;;;;;5046212;28;20031;-83
2023/07/17 00:19:16;;;;;;;2.88;1.73;;;21.40;96.80;;;;;;5040031;28;20048;-81
2023/07/17 00:21:41;;;;;;;6.97;2.20;;;21.40;96.80;;;;;;5042886;28;20048;-83
2023/07/17 00:24:07;;;;;;;7.20;2.28;;;21.40;96.90;;;;;;5059542;28;20017;-83
2023/07/17 00:26:33;;;;;;;7.47;2.67;;;21.40;96.90;;;;;;5056243;28;20052;-83
2023/07/17 00:29:24;;;;;;;6.35;2.00;;;21.40;96.90;;;;;;5052000;28;20060;-83
2023/07/17 00:31:53;;;;;;;6.65;2.08;;;21.40;96.90;;;;;;5054177;28;20017;-83
2023/07/17 00:34:19;;;;;;;5.35;2.00;;;21.40;96.70;;;;;;5059919;28;20044;-83
2023/07/17 00:36:45;;;;;;;7.63;2.13;;;21.40;96.70;;;;;;5040791;28;20040;-84
2023/07/17 00:39:11;;;;;;;4.95;2.40;;;21.40;96.70;;;;;;5059035;28;20029;-83
2023/07/17 00:41:37;;;;;;;6.72;2.17;;;21.40;96.70;;;;;;5058278;28;20086;-84
2023/07/17 00:44:03;;;;;;;4.10;1.73;;;21.40;96.70;;;;;;5057070;28;20111;-84
2023/07/17 00:46:30;;;;;;;6.30;2.60;;;21.40;96.70;;;;;;5060143;28;20346;-82
2023/07/17 00:48:56;;;;;;;4.47;2.00;;;21.40;96.80;;;;;;5065374;28;20066;-83
2023/07/17 00:51:22;;;;;;;3.85;2.30;;;21.40;96.80;;;;;;5061291;28;20013;-83
2023/07/17 00:53:49;;;;;;;6.03;2.20;;;21.40;96.70;;;;;;5058147;28;20025;-83
2023/07/17 00:56:16;;;;;;;4.35;2.30;;;21.40;96.70;;;;;;5059442;28;20020;-83
2023/07/17 00:58:42;;;;;;;8.63;2.10;;;21.40;96.60;;;;;;5058865;28;20025;-83
2023/07/17 01:01:08;;;;;;;6.05;2.22;;;21.40;96.60;;;;;;5068696;28;20099;-83
2023/07/17 01:03:34;;;;;;;7.00;2.30;;;21.40;96.60;;;;;;5066433;28;20036;-84
2023/07/17 01:06:00;;;;;;;4.82;2.08;;;21.40;96.60;;;;;;5068832;28;20358;-83
2023/07/17 01:08:26;;;;;;;16.83;2.45;;;21.40;96.60;;;;;;5065854;28;20027;-83
2023/07/17 01:10:52;;;;;;;4.88;2.33;;;21.40;96.60;;;;;;5060418;28;20044;-84
2023/07/17 01:13:18;;;;;;;5.78;2.40;;;21.40;96.60;;;;;;5062776;28;20016;-83
2023/07/17 01:15:44;;;;;;;3.55;2.08;;;21.40;96.60;;;;;;5065196;28;20047;-79
2023/07/17 01:18:10;;;;;;;6.10;2.20;;;21.40;96.60;;;;;;5066875;28;20086;-83
2023/07/17 01:20:36;;;;;;;4.95;2.08;;;21.40;96.60;;;;;;5068165;28;20525;-83
2023/07/17 01:23:04;;;;;;;2.95;1.80;;;21.40;96.50;;;;;;5068075;28;20043;-84
2023/07/17 01:25:30;;;;;;;4.85;2.40;;;21.40;96.50;;;;;;5062938;28;20069;-80
2023/07/17 01:27:56;;;;;;;9.13;2.28;;;21.40;96.60;;;;;;5061319;28;20017;-83
2023/07/17 01:30:22;;;;;;;4.10;2.08;;;21.40;96.60;;;;;;5047877;28;20530;-83
2023/07/17 01:32:47;;;;;;;4.30;2.00;;;21.30;96.50;;;;;;5066586;28;20032;-82
2023/07/17 01:35:13;;;;;;;5.75;2.03;;;21.30;96.50;;;;;;5067958;28;20095;-82
2023/07/17 01:37:40;;;;;;;4.57;2.22;;;21.30;96.50;;;;;;5066658;28;20021;-83
2023/07/17 01:40:09;;;;;;;5.03;2.50;;;21.30;96.50;;;;;;5068570;28;20029;-84
2023/07/17 01:42:35;;;;;;;6.18;2.20;;;21.30;96.40;;;;;;5065490;28;20032;-83
2023/07/17 01:45:00;;;;;;;5.50;2.53;;;21.30;96.40;;;;;;5060039;28;20029;-83
2023/07/17 01:47:26;;;;;;;3.88;1.80;;;21.30;96.40;;;;;;5064423;28;20132;-84
2023/07/17 01:49:52;;;;;;;6.22;2.08;;;21.30;96.50;;;;;;5065524;28;20163;-83
2023/07/17 01:52:17;;;;;;;9.60;2.38;;;21.30;96.40;;;;;;5065773;28;20017;-83
2023/07/17 01:54:43;;;;;;;4.13;2.13;;;21.30;96.50;;;;;;5069168;28;20117;-83
2023/07/17 01:57:09;;;;;;;3.95;2.28;;;21.30;96.80;;;;;;5066847;28;20024;-82
2023/07/17 01:59:35;;;;;;;7.28;1.83;;;21.30;96.40;;;;;;5064075;28;20024;-83
2023/07/17 02:02:00;;;;;;;4.88;2.00;;;21.30;96.40;;;;;;5048293;28;20351;-83
2023/07/17 02:04:26;;;;;;;4.70;1.95;;;21.30;96.50;;;;;;5067313;28;20048;-82
2023/07/17 02:06:52;;;;;;;2.90;2.03;;;21.30;96.50;;;;;;5065741;28;20052;-83
2023/07/17 02:09:18;;;;;;;3.10;1.83;;;21.30;96.50;;;;;;5061405;28;20538;-84
2023/07/17 02:11:43;;;;;;;6.95;2.30;;;21.30;96.50;;;;;;5056588;28;20481;-83
2023/07/17 02:14:09;;;;;;;3.45;1.90;;;21.30;96.50;;;;;;5066335;28;20488;-81
2023/07/17 02:16:35;;;;;;;5.35;2.00;;;21.30;96.50;;;;;;5062752;28;20025;-77
2023/07/17 02:19:00;;;;;;;9.75;2.00;;;21.30;96.50;;;;;;5063115;28;20071;-83
2023/07/17 02:21:29;;;;;;;9.82;2.10;;;21.30;96.60;;;;;;5057527;28;20039;-83
2023/07/17 02:23:57;;;;;;;3.60;2.00;;;21.30;96.50;;;;;;5040917;28;20028;-83
2023/07/17 02:26:22;;;;;;;5.43;2.22;;;21.30;96.50;;;;;;5046425;28;20112;-83
2023/07/17 02:28:48;;;;;;;10.13;2.20;;;21.30;96.60;;;;;;5047903;28;20112;-83
2023/07/17 02:31:14;;;;;;;7.40;2.50;;;21.30;96.50;;;;;;5046254;28;20095;-81
2023/07/17 02:33:42;;;;;;;8.98;2.60;;;21.30;96.50;;;;;;5045403;28;20033;-83
2023/07/17 02:36:08;;;;;;;5.28;2.08;;;21.30;96.50;;;;;;5041374;28;20024;-83
2023/07/17 02:38:33;;;;;;;5.95;2.08;;;21.30;96.50;;;;;;5043337;28;20449;-83
2023/07/17 02:41:00;;;;;;;7.93;2.33;;;21.30;96.60;;;;;;5035321;28;20039;-82
2023/07/17 02:43:26;;;;;;;6.22;2.00;;;21.30;96.50;;;;;;5048073;28;20032;-83
2023/07/17 02:45:51;;;;;;;6.03;2.72;;;21.30;96.60;;;;;;5044200;28;20024;-82
2023/07/17 02:48:17;;;;;;;7.20;2.38;;;21.30;96.60;;;;;;5046774;28;20040;-83
2023/07/17 02:50:43;;;;;;;8.57;2.22;;;21.30;96.60;;;;;;5042468;28;20025;-83
2023/07/17 02:53:08;;;;;;;10.20;2.30;;;21.30;96.60;;;;;;5039384;28;20370;-80
2023/07/17 02:55:34;;;;;;;9.68;2.78;;;21.30;96.60;;;;;;5038696;28;20398;-82
2023/07/17 02:58:00;;;;;;;6.05;2.40;;;21.30;96.60;;;;;;5039076;28;20029;-83
2023/07/17 03:00:25;;;;;;;3.75;1.98;;;21.30;96.60;;;;;;5048888;28;20646;-83
2023/07/17 03:02:51;;;;;;;3.10;2.20;;;21.30;96.60;;;;;;5037901;28;20541;-83
2023/07/17 03:05:17;;;;;;;4.80;2.30;;;21.30;96.70;;;;;;5040465;28;20478;-83
2023/07/17 03:07:46;;;;;;;4.82;2.45;;;21.30;96.70;;;;;;5042640;28;20029;-83
2023/07/17 03:10:13;;;;;;;6.17;2.17;;;21.30;96.70;;;;;;5044405;28;20088;-83
2023/07/17 03:12:38;;;;;;;9.25;2.22;;;21.30;96.70;;;;;;5037623;28;20353;-83
2023/07/17 03:15:05;;;;;;;5.28;2.33;;;21.30;96.80;;;;;;5044040;28;20459;-82
2023/07/17 03:17:32;;;;;;;7.90;2.63;;;21.30;96.80;;;;;;5047962;28;20377;-83
2023/07/17 03:19:58;;;;;;;3.35;1.95;;;21.30;96.80;;;;;;5040562;28;20115;-83
2023/07/17 03:22:24;;;;;;;5.25;2.35;;;21.30;96.80;;;;;;5040272;28;20425;-83
2023/07/17 03:24:50;;;;;;;8.98;2.40;;;21.30;96.90;;;;;;5037137;28;20032;-83
2023/07/17 03:27:16;;;;;;;4.90;2.58;;;21.30;96.90;;;;;;5037350;28;20029;-83
2023/07/17 03:29:41;;;;;;;8.77;2.45;;;21.30;96.90;;;;;;5035145;28;20103;-78
2023/07/17 03:32:07;;;;;;;14.55;2.83;;;21.30;97.00;;;;;;5050325;28;20032;-83
2023/07/17 03:34:33;;;;;;;13.07;2.22;;;21.30;97.00;;;;;;5043735;28;20048;-83
2023/07/17 03:36:59;;;;;;;6.53;2.20;;;21.30;97.00;;;;;;5042333;28;20395;-83
2023/07/17 03:39:24;;;;;;;8.35;2.63;;;21.20;97.00;;;;;;5041410;28;20043;-83
2023/07/17 03:41:50;;;;;;;11.90;2.75;;;21.20;97.00;;;;;;5042636;28;20044;-83
2023/07/17 03:44:16;;;;;;;7.38;2.60;;;21.20;97.00;;;;;;5039658;28;20022;-82
2023/07/17 03:46:41;;;;;;;7.28;2.47;;;21.30;97.00;;;;;;5047520;28;20039;-83
2023/07/17 03:49:09;;;;;;;4.20;2.03;;;21.20;97.00;;;;;;5046998;28;20013;-83
2023/07/17 03:51:38;;;;;;;4.00;2.53;;;21.20;97.00;;;;;;5044302;28;20077;-82
2023/07/17 03:54:04;;;;;;;4.55;2.40;;;21.30;97.10;;;;;;5036326;28;20031;-82
2023/07/17 03:56:29;;;;;;;5.35;2.65;;;21.20;97.10;;;;;;5041026;28;20029;-83
2023/07/17 03:58:58;;;;;;;5.80;2.35;;;21.20;97.10;;;;;;5034323;28;20029;-83
2023/07/17 04:01:24;;;;;;;9.23;2.75;;;21.20;97.10;;;;;;5042338;28;20382;-83
2023/07/17 04:03:49;;;;;;;6.28;2.40;;;21.20;97.10;;;;;;5046708;28;20025;-83
2023/07/17 04:06:15;;;;;;;9.07;2.28;;;21.20;97.00;;;;;;5042710;28;20052;-83
2023/07/17 04:08:41;;;;;;;3.45;2.00;;;21.10;97.00;;;;;;5042964;28;20484;-83
2023/07/17 04:11:07;;;;;;;9.60;2.38;;;21.20;97.00;;;;;;5040208;28;20033;-83
2023/07/17 04:13:32;;;;;;;6.53;2.42;;;21.20;97.00;;;;;;5037558;28;20165;-83
2023/07/17 04:16:01;;;;;;;6.28;2.30;;;21.20;97.00;;;;;;5041351;28;20040;-83
2023/07/17 04:18:27;;;;;;;10.48;2.92;;;21.20;97.00;;;;;;5042923;28;20092;-82
2023/07/17 04:20:52;;;;;;;6.03;2.63;;;21.20;97.00;;;;;;5045963;28;20382;-81
2023/07/17 04:23:18;;;;;;;6.60;2.78;;;21.10;97.00;;;;;;5039660;28;20025;-81
2023/07/17 04:25:43;;;;;;;11.63;2.42;;;20.90;96.80;;;;;;5042122;28;20030;-82
2023/07/17 04:28:09;;;;;;;11.30;2.30;;;20.80;96.90;;;;;;5040198;28;20383;-81
2023/07/17 04:30:38;;;;;;;8.15;2.42;;;20.70;97.00;;;;;;5043091;28;20151;-81
2023/07/17 04:33:04;;;;;;;3.92;2.40;;;20.60;97.10;;;;;;5045360;28;20017;-81
2023/07/17 04:35:38;;;;;;;4.10;2.28;;;20.50;97.20;;;;;;5043884;28;20021;-82
2023/07/17 04:38:04;;;;;;;11.73;2.65;;;20.50;97.50;;;;;;5046027;28;20096;-81
2023/07/17 04:40:30;;;;;;;7.57;2.70;;;20.40;97.80;;;;;;5048999;28;20174;-81
2023/07/17 04:43:00;;;;;;;11.65;2.90;;;20.40;98.00;;;;;;5043528;28;20027;-81
2023/07/17 04:45:25;;;;;;;5.10;2.47;;;20.40;98.10;;;;;;5046176;28;20541;-81
2023/07/17 04:47:51;;;;;;;4.00;2.95;;;20.40;98.10;;;;;;5048759;28;20437;-81
2023/07/17 04:50:17;;;;;;;6.32;3.05;;;20.40;98.10;;;;;;5044328;28;20032;-81
2023/07/17 04:52:42;;;;;;;9.80;2.65;;;20.30;98.30;;;;;;5046237;28;20188;-81
2023/07/17 04:55:08;;;;;;;4.53;2.45;;;20.30;98.40;;;;;;5046836;28;20026;-81
2023/07/17 04:57:33;;;;;;;8.15;2.85;;;20.30;98.30;;;;;;5046810;28;20043;-82
2023/07/17 04:59:59;;;;;;;6.75;2.40;;;20.30;98.40;;;;;;5041222;28;20025;-81
2023/07/17 05:02:25;;;;;;;4.88;2.50;;;20.30;98.50;;;;;;5044634;28;20044;-82
2023/07/17 05:04:50;;;;;;;7.65;3.05;;;20.20;98.60;;;;;;5046616;28;20098;-78
2023/07/17 05:07:16;;;;;;;10.73;2.80;;;20.30;98.50;;;;;;5050900;28;20037;-83
2023/07/17 05:09:41;;;;;;;8.32;3.00;;;20.40;98.30;;;;;;5044426;28;20021;-82
2023/07/17 05:12:07;;;;;;;4.97;2.70;;;20.60;98.10;;;;;;5049147;28;20063;-83
2023/07/17 05:14:33;;;;;;;11.43;3.10;;;20.70;98.00;;;;;;5048522;28;20033;-83
2023/07/17 05:16:58;;;;;;;9.38;2.90;;;20.70;98.00;;;;;;5046397;28;20021;-83
2023/07/17 05:19:24;;;;;;;10.18;2.75;;;20.80;98.00;;;;;;5044412;28;20109;-83
2023/07/17 05:21:49;;;;;;;4.70;2.53;;;20.80;98.00;;;;;;5049562;28;20040;-83
2023/07/17 05:24:15;;;;;;;6.85;2.80;;;20.80;98.00;;;;;;5064420;28;20271;-82
2023/07/17 05:26:40;;;;;;;8.90;2.63;;;20.90;98.10;;;;;;5067201;28;20021;-83
2023/07/17 05:29:06;;;;;;;6.32;2.85;;;20.90;98.10;;;;;;5075873;28;20077;-83
2023/07/17 05:31:38;;;;;;;5.43;2.70;;;20.90;98.10;;;;;;5065756;28;20118;-82
2023/07/17 05:34:04;;;;;;;6.68;2.75;;;20.90;98.20;;;;;;5074705;28;20020;-83
2023/07/17 05:36:29;;;;;;;7.15;3.13;;;20.90;98.20;;;;;;5068782;28;20039;-84
2023/07/17 05:38:55;;;;;;;4.03;2.40;;;20.90;98.20;;;;;;5067260;28;20021;-83
2023/07/17 05:41:21;;;;;;;9.05;3.10;;;21.00;98.30;;;;;;5065642;28;20023;-83
2023/07/17 05:43:46;;;;;;;6.72;2.67;;;21.00;98.30;;;;;;5071143;28;20032;-83
2023/07/17 05:46:12;;;;;;;9.52;2.85;;;21.00;98.40;;;;;;5059768;28;20023;-83
2023/07/17 05:48:38;;;;;;;7.05;3.58;;;21.00;98.40;;;;;;5071338;28;20461;-83
2023/07/17 05:51:04;;;;;;;7.20;2.80;;;21.00;98.40;;;;;;5066269;28;20024;-83
2023/07/17 05:53:30;;;;;;;6.85;3.22;;;21.00;98.60;;;;;;5057819;28;20536;-81
2023/07/17 05:55:55;;;;;;;5.97;2.97;;;21.00;98.50;;;;;;5061024;28;20562;-78
2023/07/17 05:58:21;;;;;;;8.73;2.92;;;21.00;98.40;;;;;;5064566;28;20048;-83
2023/07/17 06:00:47;;;;;;;10.30;2.90;;;21.10;98.40;;;;;;5072901;28;20031;-83
2023/07/17 06:03:13;;;;;;;8.00;3.80;;;21.10;98.40;;;;;;5072374;28;20040;-83
2023/07/17 06:05:39;;;;;;;7.53;3.00;;;21.10;98.30;;;;;;5071088;28;20024;-82
2023/07/17 06:08:05;;;;;;;6.47;2.90;;;21.10;98.30;;;;;;5064701;28;20474;-83
2023/07/17 06:10:31;;;;;;;9.80;2.85;;;21.10;98.30;;;;;;5066805;28;20013;-83
2023/07/17 06:13:01;;;;;;;6.63;3.10;;;21.20;98.30;;;;;;5068791;28;20108;-83
2023/07/17 06:15:27;;;;;;;;;;;21.20;98.30;;;;;;5052650;28;20103;-82
2023/07/17 06:17:52;;;;;;;6.10;2.92;;;21.20;98.30;;;;;;5069866;28;19919;-83
2023/07/17 06:20:20;;;;;;;10.70;2.85;;;21.20;98.20;;;;;;5065822;28;20021;-84
2023/07/17 06:22:46;;;;;;;12.57;3.20;;;21.20;98.20;;;;;;5058512;28;20025;-83
2023/07/17 06:25:12;;;;;;;6.50;2.33;;;21.20;98.20;;;;;;5062287;28;20108;-81
2023/07/17 06:27:38;;;;;;;13.93;2.85;;;21.20;98.20;;;;;;5068200;28;20115;-82
2023/07/17 06:30:05;;;;;;;7.68;2.50;;;21.20;98.20;;;;;;5061639;28;20392;-83
2023/07/17 06:32:31;;;;;;;6.65;2.88;;;21.30;98.20;;;;;;5060631;28;20028;-84
2023/07/17 06:34:57;;;;;;;8.80;2.70;;;21.30;98.20;;;;;;5059061;28;20021;-82
2023/07/17 06:37:22;;;;;;;3.95;2.53;;;21.30;98.20;;;;;;5056632;28;20524;-83
2023/07/17 06:39:48;;;;;;;6.13;2.70;;;21.30;98.00;;;;;;5065050;28;20091;-83
2023/07/17 06:42:14;;;;;;;9.15;2.60;;;21.30;98.10;;;;;;5063063;28;20081;-84
2023/07/17 06:44:39;;;;;;;4.80;2.40;;;21.30;98.00;;;;;;5063562;28;20435;-84
2023/07/17 06:47:05;;;;;;;8.20;2.63;;;21.30;98.10;;;;;;5059036;28;20056;-84
2023/07/17 06:49:31;;;;;;;15.65;2.88;;;21.30;98.00;;;;;;5066411;28;20444;-84
2023/07/17 06:51:56;;;;;;;9.18;2.50;;;21.30;98.00;;;;;;5066082;28;20029;-85
2023/07/17 06:54:22;;;;;;;10.05;2.67;;;21.40;98.00;;;;;;5060846;28;20028;-84
2023/07/17 06:56:47;;;;;;;3.55;2.33;;;21.40;98.00;;;;;;5060623;28;20035;-83
2023/07/17 06:59:13;;;;;;;5.88;2.25;;;21.40;98.00;;;;;;5061516;28;20114;-83
2023/07/17 07:01:39;;;;;;;9.40;2.35;;;21.40;98.00;;;;;;5064563;28;20033;-83
2023/07/17 07:04:06;;;;;;;6.85;2.85;;;21.40;98.00;;;;;;5062078;28;20035;-84
2023/07/17 07:06:32;;;;;;;5.90;2.42;;;21.40;98.00;;;;;;5058545;28;20035;-83
2023/07/17 07:08:58;;;;;;;4.65;2.10;;;21.40;98.00;;;;;;5059794;28;20029;-84
2023/07/17 07:11:23;;;;;;;7.18;2.17;;;21.40;98.00;;;;;;5061328;28;20020;-83
2023/07/17 07:13:49;;;;;;;3.60;2.03;;;21.40;97.90;;;;;;5065215;28;20021;-84
2023/07/17 07:16:15;;;;;;;4.50;2.30;;;21.40;97.90;;;;;;5059584;28;20024;-84
2023/07/17 07:18:41;;;;;;;5.13;2.67;;;21.40;97.90;;;;;;5065535;28;20024;-83
2023/07/17 07:21:07;;;;;;;10.05;2.53;;;21.40;97.80;;;;;;5061357;28;20074;-82
2023/07/17 07:23:34;;;;;;;6.18;2.30;;;21.40;97.80;;;;;;5047214;28;20139;-83
2023/07/17 07:25:59;;;;;;;4.57;2.60;;;21.40;97.80;;;;;;5047817;28;20021;-83
2023/07/17 07:28:25;;;;;;;5.18;2.30;;;21.40;97.80;;;;;;5045070;28;20462;-84
2023/07/17 07:30:55;;;;;;;6.50;2.28;;;21.40;97.80;;;;;;5041073;28;20033;-83
2023/07/17 07:33:21;;;;;;;5.13;2.15;;;21.50;97.80;;;;;;5042085;28;20973;-83
2023/07/17 07:35:47;;;;;;;6.20;2.70;;;21.40;97.80;;;;;;5040988;28;20112;-83
2023/07/17 07:38:16;;;;;;;3.58;1.98;;;21.50;97.80;;;;;;5043471;28;20480;-84
2023/07/17 07:40:41;;;;;;;6.47;2.72;;;21.50;97.70;;;;;;5042614;28;20540;-84
2023/07/17 07:43:07;;;;;;;9.65;2.45;;;21.50;97.70;;;;;;5045018;28;20033;-83
2023/07/17 07:45:33;;;;;;;4.05;2.60;;;21.50;97.70;;;;;;5042829;28;20082;-83
2023/07/17 07:47:58;;;;;;;7.30;3.22;;;21.50;97.80;;;;;;5043538;28;20542;-84
2023/07/17 07:50:27;;;;;;;5.47;2.22;;;21.50;97.80;;;;;;5039893;28;20025;-82
2023/07/17 07:52:54;;;;;;;6.68;2.60;;;21.50;97.80;;;;;;5041666;28;20056;-82
2023/07/17 07:55:20;;;;;;;5.78;2.90;;;21.40;97.90;;;;;;5042976;28;20025;-83
2023/07/17 07:57:46;;;;;;;6.82;2.83;;;21.50;97.80;;;;;;5041922;28;20025;-83
2023/07/17 08:00:12;;;;;;;7.28;3.13;;;21.50;97.80;;;;;;5046176;28;20025;-83
2023/07/17 08:02:37;;;;;;;6.35;2.72;;;21.50;97.80;;;;;;5045194;28;20025;-84
2023/07/17 08:05:03;;;;;;;9.45;2.70;;;21.50;97.80;;;;;;5042548;28;20493;-82
2023/07/17 08:07:29;;;;;;;17.05;2.63;;;21.40;97.80;;;;;;5043408;28;20028;-83
2023/07/17 08:09:54;;;;;;;5.07;2.50;;;21.50;97.90;;;;;;5038224;28;20021;-83
2023/07/17 08:12:20;;;;;;;8.90;3.22;;;21.50;97.80;;;;;;5040875;28;20022;-82
2023/07/17 08:14:46;;;;;;;9.65;2.70;;;21.50;97.80;;;;;;5021822;28;20355;-82
2023/07/17 08:17:11;;;;;;;9.77;2.42;;;21.40;97.70;;;;;;5045294;28;20095;-85
2023/07/17 08:19:37;;;;;;;7.97;2.58;;;21.50;97.70;;;;;;5039149;28;20068;-81
2023/07/17 08:22:03;;;;;;;8.88;2.92;;;21.30;97.60;;;;;;5046349;28;20032;-83
2023/07/17 08:24:28;;;;;;;9.02;2.28;;;21.50;97.60;;;;;;5067134;28;20555;-81
2023/07/17 08:26:55;;;;;;;12.32;2.92;;;21.50;97.60;;;;;;5062397;28;20129;-81
2023/07/17 08:29:21;;;;;;;5.95;2.45;;;21.50;97.60;;;;;;5065234;28;20028;-84
2023/07/17 08:31:46;;;;;;;4.70;2.38;;;21.50;97.60;;;;;;5058405;28;20027;-84
2023/07/17 08:34:12;;;;;;;4.85;2.15;;;21.50;97.50;;;;;;5064985;28;20032;-82
2023/07/17 08:36:37;;;;;;;4.38;2.33;;;21.50;97.60;;;;;;5058656;28;20029;-84
2023/07/17 08:39:05;;;;;;;6.80;2.58;;;21.50;97.50;;;;;;5059111;28;20035;-84
2023/07/17 08:41:30;;;;;;;6.95;2.90;;;21.50;97.50;;;;;;5064460;28;20057;-83
2023/07/17 08:43:58;;;;;;;6.13;2.08;;;21.50;97.50;;;;;;5069447;28;20406;-83
2023/07/17 08:46:23;;;;;;;7.18;2.80;;;21.50;97.50;;;;;;5057316;28;20034;-86
2023/07/17 08:48:50;;;;;;;5.90;2.25;;;21.50;97.50;;;;;;5064010;28;20393;-84
2023/07/17 08:51:16;;;;;;;4.82;2.40;;;21.50;97.50;;;;;;5065661;28;20096;-83
2023/07/17 08:53:45;;;;;;;7.13;2.50;;;21.50;97.50;;;;;;5065199;28;20150;-83
2023/07/17 08:56:12;;;;;;;4.20;2.58;;;21.50;97.50;;;;;;5070889;28;20428;-83
2023/07/17 08:58:38;;;;;;;8.15;2.90;;;21.60;97.50;;;;;;5061524;28;20028;-83
2023/07/17 09:01:04;;;;;;;6.22;2.53;;;21.50;97.40;;;;;;5062884;28;20024;-84
2023/07/17 09:03:32;;;;;;;9.48;2.40;;;21.60;97.40;;;;;;5063847;28;20024;-85
2023/07/17 09:06:01;;;;;;;4.00;2.80;;;21.50;97.50;;;;;;5040827;28;20095;-83
2023/07/17 09:08:27;;;;;;;5.00;2.20;;;21.50;97.60;;;;;;5063593;28;20112;-84
2023/07/17 09:11:08;;;;;;;10.45;2.83;;;21.50;97.50;;;;;;5061204;28;20096;-84
2023/07/17 09:13:38;;;;;;;11.25;2.80;;;21.50;97.30;;;;;;5065637;28;20025;-85
2023/07/17 09:16:18;;;;;;;6.33;2.90;;;21.50;97.50;;;;;;5064121;28;20025;-83
2023/07/17 09:18:45;;;;;;;4.47;2.35;;;21.50;97.60;;;;;;5063439;28;20703;-83
2023/07/17 09:21:15;;;;;;;5.93;2.72;;;21.50;97.60;;;;;;5068443;28;20402;-82
2023/07/17 09:23:46;;;;;;;7.68;3.28;;;21.50;97.60;;;;;;5037926;28;20121;-82
2023/07/17 09:26:17;;;;;;;4.53;2.45;;;21.50;97.60;;;;;;5042138;28;20100;-85
2023/07/17 09:28:51;;;;;;;6.50;2.60;;;21.60;97.60;;;;;;5038299;28;20420;-83
2023/07/17 09:31:30;;;;;;;11.73;2.97;;;21.50;97.60;;;;;;5040500;28;20548;-83
2023/07/17 09:34:11;;;;;;;10.15;2.95;;;21.60;97.70;;;;;;5039068;28;20018;-84
2023/07/17 09:36:36;;;;;;;6.38;2.72;;;21.50;97.70;;;;;;5046248;28;20044;-82
2023/07/17 09:39:04;;;;;;;3.38;2.65;;;21.60;97.50;;;;;;5042526;28;20033;-85
2023/07/17 09:41:30;;;;;;;6.63;2.92;;;21.60;97.60;;;;;;5042139;28;20438;-84
2023/07/17 09:44:04;;;;;;;8.10;2.60;;;21.50;97.60;;;;;;5020211;28;20126;-79
2023/07/17 09:46:36;;;;;;;6.75;3.10;;;21.60;97.60;;;;;;5041083;28;20024;-83
2023/07/17 09:49:03;;;;;;;7.32;2.63;;;21.60;97.70;;;;;;5042023;28;20405;-83
2023/07/17 09:51:29;;;;;;;4.43;2.90;;;21.60;97.60;;;;;;5029345;28;20021;-84
2023/07/17 09:53:58;;;;;;;10.40;2.75;;;21.50;97.80;;;;;;5043857;28;20028;-78
2023/07/17 09:56:27;;;;;;;7.65;3.00;;;21.60;97.60;;;;;;5043737;28;20104;-84
2023/07/17 09:58:55;;;;;;;5.88;2.45;;;21.50;97.50;;;;;;5047779;28;20029;-84
2023/07/17 10:01:25;;;;;;;9.18;3.30;;;21.60;97.60;;;;;;5023908;28;20119;-82
2023/07/17 10:03:51;;;;;;;5.25;2.75;;;21.60;97.50;;;;;;5023836;28;20386;-83
2023/07/17 10:06:19;;;;;;;5.80;2.80;;;21.50;97.40;;;;;;5044891;28;20095;-83
2023/07/17 10:08:49;;;;;;;8.13;2.88;;;21.60;97.30;;;;;;5044094;28;20063;-84
2023/07/17 10:11:15;;;;;;;5.40;3.13;;;21.60;97.50;;;;;;5046594;28;20103;-84
2023/07/17 10:13:51;;;;;;;4.68;2.78;;;21.60;97.20;;;;;;5044185;28;20083;-83
2023/07/17 10:16:18;;;;;;;5.28;2.83;;;21.60;97.40;;;;;;5042537;28;20487;-84
2023/07/17 10:18:49;;;;;;;6.55;2.92;;;21.60;97.30;;;;;;5040785;28;20025;-84
2023/07/17 10:21:18;;;;;;;3.90;2.60;;;21.60;97.40;;;;;;5044011;28;20017;-82
2023/07/17 10:23:46;;;;;;;4.00;2.80;;;21.60;97.10;;;;;;5044257;28;20482;-84
2023/07/17 10:26:14;;;;;;;5.18;3.05;;;21.60;97.20;;;;;;5043242;28;20382;-84
2023/07/17 10:28:41;;;;;;;7.57;3.53;;;21.60;97.20;;;;;;5043536;28;20108;-82
2023/07/17 10:31:21;;;;;;;7.53;2.97;;;21.60;97.10;;;;;;5046167;28;20530;-84
2023/07/17 10:33:50;;;;;;;6.22;2.70;;;21.60;97.20;;;;;;5025752;28;20021;-83
2023/07/17 10:36:17;;;;;;;4.47;2.35;;;21.60;96.90;;;;;;5041846;28;20378;-84
2023/07/17 10:38:51;;;;;;;8.05;3.10;;;21.60;97.10;;;;;;5043856;28;20041;-83
2023/07/17 10:41:17;;;;;;;4.13;2.30;;;21.60;97.20;;;;;;5042680;28;20031;-86
2023/07/17 10:43:56;;;;;;;6.47;3.08;;;21.70;97.00;;;;;;5044495;28;20723;-83
2023/07/17 10:46:32;;;;;;;6.18;3.03;;;21.60;97.10;;;;;;5048044;28;20028;-84
2023/07/17 10:49:18;;;;;;;4.95;2.85;;;21.70;97.20;;;;;;5043298;28;20440;-83
2023/07/17 10:51:48;;;;;;;6.85;2.90;;;21.70;97.30;;;;;;5040430;28;20038;-83
2023/07/17 10:54:15;;;;;;;5.97;2.92;;;21.70;97.00;;;;;;5041345;28;20382;-83
2023/07/17 10:56:45;;;;;;;6.90;2.97;;;21.70;97.00;;;;;;5041203;28;20032;-82
2023/07/17 10:59:11;;;;;;;5.80;3.05;;;21.70;97.10;;;;;;5044090;28;20112;-84
2023/07/17 11:01:37;;;;;;;7.22;2.92;;;21.70;97.00;;;;;;5042280;28;20137;-84
2023/07/17 11:04:07;;;;;;;7.70;2.95;;;21.70;96.80;;;;;;5042851;28;20382;-83
2023/07/17 11:06:32;;;;;;;5.72;3.15;;;21.70;96.80;;;;;;5043482;28;20029;-83
2023/07/17 11:08:59;;;;;;;5.95;2.40;;;21.70;96.70;;;;;;5041586;28;20033;-84
2023/07/17 11:11:25;;;;;;;8.98;2.80;;;21.70;96.70;;;;;;5040266;28;20032;-84
2023/07/17 11:13:54;;;;;;;3.53;2.60;;;21.70;96.80;;;;;;5041283;28;20025;-85
2023/07/17 11:16:22;;;;;;;9.13;3.75;;;21.80;96.70;;;;;;5039021;28;20063;-84
2023/07/17 11:18:49;;;;;;;10.10;2.95;;;21.80;96.70;;;;;;5042927;28;20025;-84
2023/07/17 11:21:20;;;;;;;7.20;2.83;;;21.80;97.00;;;;;;5042237;28;20033;-85
2023/07/17 11:23:52;;;;;;;7.72;3.17;;;21.80;96.90;;;;;;5038632;28;20090;-85
2023/07/17 11:26:33;;;;;;;7.80;3.25;;;21.80;96.60;;;;;;5042348;28;20024;-84
2023/07/17 11:29:00;;;;;;;8.05;3.00;;;21.80;96.50;;;;;;5021355;28;20056;-85
2023/07/17 11:31:36;;;;;;;6.68;3.45;;;21.80;96.90;;;;;;5035111;28;20452;-85
2023/07/17 11:34:07;;;;;;;12.20;3.45;;;21.80;97.00;;;;;;5038057;28;20876;-84
2023/07/17 11:36:48;;;;;;;6.38;3.08;;;21.80;96.80;;;;;;5041614;28;20017;-85
2023/07/17 11:39:17;;;;;;;8.25;2.90;;;21.80;96.50;;;;;;5029452;28;20028;-83
2023/07/17 11:41:51;;;;;;;7.30;3.50;;;21.80;96.80;;;;;;5033372;28;20087;-83
2023/07/17 11:44:26;;;;;;;4.75;3.15;;;21.80;96.40;;;;;;5033960;28;20052;-85
2023/07/17 11:47:00;;;;;;;13.63;3.60;;;21.80;96.40;;;;;;5035980;28;20478;-84
2023/07/17 11:49:26;;;;;;;8.65;3.85;;;21.90;96.50;;;;;;5038976;28;20013;-85
2023/07/17 11:51:52;;;;;;;6.57;3.10;;;21.90;96.70;;;;;;5042201;28;20431;-86
2023/07/17 11:54:18;;;;;;;11.82;3.50;;;21.80;96.50;;;;;;5037300;28;20501;-85
2023/07/17 11:56:45;;;;;;;5.60;2.90;;;21.90;96.40;;;;;;5035344;28;20026;-78
2023/07/17 11:59:22;;;;;;;9.23;3.75;;;21.80;96.40;;;;;;5039977;28;20029;-77
2023/07/17 12:01:49;;;;;;;6.53;2.72;;;21.90;96.30;;;;;;5032529;28;20028;-79
2023/07/17 12:04:26;;;;;;;4.93;2.90;;;21.90;96.50;;;;;;5037775;28;20043;-78
2023/07/17 12:07:00;;;;;;;11.45;3.58;;;21.90;96.20;;;;;;5012988;28;20386;-79
2023/07/17 12:09:33;;;;;;;4.72;2.97;;;21.90;96.50;;;;;;5038443;28;20018;-78
2023/07/17 12:11:58;;;;;;;6.55;2.50;;;21.90;96.70;;;;;;5038826;28;20467;-82
2023/07/17 12:14:24;;;;;;;7.88;2.75;;;21.90;96.30;;;;;;5044147;28;20079;-81
2023/07/17 12:16:49;;;;;;;3.80;2.75;;;21.90;96.50;;;;;;5024470;28;20525;-81
2023/07/17 12:19:15;;;;;;;4.70;2.65;;;21.90;96.60;;;;;;5024252;28;20020;-79
2023/07/17 12:21:41;;;;;;;5.68;3.10;;;21.90;96.40;;;;;;5044824;28;20071;-79
2023/07/17 12:24:06;;;;;;;20.13;3.53;;;21.90;96.30;;;;;;5044852;28;20029;-81
2023/07/17 12:26:32;;;;;;;10.30;3.30;;;21.90;96.50;;;;;;5040740;28;20053;-80
2023/07/17 12:28:57;;;;;;;5.50;3.13;;;21.90;96.50;;;;;;5038385;28;20108;-79
2023/07/17 12:31:24;;;;;;;6.30;2.95;;;21.90;96.10;;;;;;5019582;28;20026;-78
2023/07/17 12:33:49;;;;;;;9.65;3.42;;;21.90;96.40;;;;;;5017774;28;20026;-82
2023/07/17 12:36:15;;;;;;;8.70;3.58;;;21.90;96.00;;;;;;5037360;28;20485;-79
2023/07/17 12:38:41;;;;;;;7.55;3.30;;;21.90;96.40;;;;;;5045595;28;20100;-78
2023/07/17 12:41:06;;;;;;;5.40;2.92;;;21.90;96.30;;;;;;5038802;28;20535;-78
2023/07/17 12:43:32;;;;;;;10.35;3.35;;;21.90;96.40;;;;;;5042342;28;20066;-78
2023/07/17 12:45:58;;;;;;;8.52;3.63;;;21.90;96.20;;;;;;5036913;28;20014;-78